createdAt,value
2018-11-13T00:01:32.090Z,11.97
2018-11-13T00:04:01.795Z,16.53
2018-11-13T00:06:31.810Z,11.10
2018-11-13T00:09:01.581Z,13.50
2018-11-13T00:11:30.680Z,12.73
2018-11-13T00:13:59.090Z,12.60
2018-11-13T00:16:27.890Z,10.90
2018-11-13T00:18:56.485Z,14.43
2018-11-13T00:21:26.167Z,13.83
2018-11-13T00:23:54.742Z,12.70
2018-11-13T00:26:23.290Z,15.80
2018-11-13T00:28:51.774Z,13.97
2018-11-13T00:31:20.550Z,12.00
2018-11-13T00:33:49.058Z,13.03
2018-11-13T00:36:17.573Z,14.97
2018-11-13T00:38:46.074Z,14.10
2018-11-13T00:41:14.610Z,10.00
2018-11-13T00:43:43.125Z,14.13
2018-11-13T00:46:11.890Z,11.47
2018-11-13T00:48:40.371Z,13.60
2018-11-13T00:51:08.852Z,14.47
2018-11-13T00:53:37.333Z,14.57
2018-11-13T00:56:06.149Z,17.90
2018-11-13T00:58:34.638Z,13.07
2018-11-13T01:01:03.133Z,11.80
2018-11-13T01:03:31.630Z,15.23
2018-11-13T01:06:00.122Z,18.20
2018-11-13T01:08:28.646Z,17.37
2018-11-13T01:10:57.687Z,15.27
2018-11-13T01:13:26.745Z,15.13
2018-11-13T01:16:04.874Z,16.20
2018-11-13T01:18:38.940Z,14.00
2018-11-13T01:21:15.270Z,14.50
2018-11-13T01:23:49.707Z,15.60
2018-11-13T01:26:30.918Z,13.73
2018-11-13T01:29:02.021Z,18.40
2018-11-13T01:31:33.682Z,17.30
2018-11-13T01:34:02.689Z,15.27
2018-11-13T01:36:31.544Z,20.47
2018-11-13T01:39:01.400Z,17.73
2018-11-13T01:41:30.496Z,16.53
2018-11-13T01:43:59.619Z,18.40
2018-11-13T01:46:29.859Z,22.87
2018-11-13T01:48:59.404Z,18.17
2018-11-13T01:51:27.964Z,19.00
2018-11-13T01:54:10.541Z,17.70
2018-11-13T01:56:46.392Z,22.00
2018-11-13T01:59:16.463Z,23.63
2018-11-13T02:01:46.402Z,20.23
2018-11-13T02:04:25.474Z,20.97
2018-11-13T02:07:01.558Z,19.50
2018-11-13T02:09:38.602Z,21.47
2018-11-13T02:12:14.472Z,20.77
2018-11-13T02:17:33.842Z,19.33
2018-11-13T02:20:02.735Z,24.80
2018-11-13T02:22:33.186Z,23.90
2018-11-13T02:25:02.926Z,23.17
2018-11-13T02:27:32.755Z,20.87
2018-11-13T02:30:05.157Z,27.17
2018-11-13T02:32:35.135Z,21.10
2018-11-13T02:35:11.203Z,24.80
2018-11-13T02:37:40.793Z,21.97
2018-11-13T02:40:09.309Z,26.80
2018-11-13T02:45:13.938Z,22.77
2018-11-13T02:47:47.400Z,27.47
2018-11-13T02:50:19.108Z,27.40
2018-11-13T02:52:50.026Z,26.50
2018-11-13T02:55:23.473Z,24.80
2018-11-13T02:57:56.680Z,27.67
2018-11-13T03:00:33.546Z,25.90
2018-11-13T03:03:11.234Z,26.90
2018-11-13T03:05:49.531Z,27.73
2018-11-13T03:08:18.834Z,27.00
2018-11-13T03:10:58.710Z,32.10
2018-11-13T03:13:28.063Z,28.53
2018-11-13T03:15:57.286Z,25.80
2018-11-13T03:18:36.400Z,30.47
2018-11-13T03:21:10.040Z,29.87
2018-11-13T03:23:47.318Z,32.93
2018-11-13T03:26:17.949Z,28.37
2018-11-13T03:28:54.667Z,29.27
2018-11-13T03:31:25.751Z,30.37
2018-11-13T03:33:54.289Z,30.93
2018-11-13T03:36:24.915Z,32.23
2018-11-13T03:38:54.382Z,32.70
2018-11-13T03:41:27.370Z,31.17
2018-11-13T03:43:58.026Z,27.77
2018-11-13T03:46:39.583Z,39.27
2018-11-13T03:49:10.175Z,29.73
2018-11-13T03:51:40.192Z,31.30
2018-11-13T03:56:56.420Z,30.73
2018-11-13T04:02:03.189Z,32.03
2018-11-13T04:04:33.661Z,27.07
2018-11-13T04:07:09.208Z,28.70
2018-11-13T04:12:22.648Z,42.93
2018-11-13T04:14:52.193Z,30.80
2018-11-13T04:17:26.503Z,31.73
2018-11-13T04:20:01.743Z,28.47
2018-11-13T04:22:31.345Z,34.10
2018-11-13T04:24:59.905Z,34.93
2018-11-13T04:27:28.496Z,30.93
2018-11-13T04:32:37.305Z,33.57
2018-11-13T04:35:06.559Z,35.70
2018-11-13T04:37:42.557Z,33.80
2018-11-13T04:40:21.970Z,31.20
2018-11-13T04:45:26.492Z,32.10
2018-11-13T04:47:58.960Z,32.97
2018-11-13T04:50:34.197Z,28.63
2018-11-13T04:53:03.322Z,28.33
2018-11-13T04:55:41.804Z,28.73
2018-11-13T04:58:11.274Z,30.33
2018-11-13T05:00:40.428Z,29.33
2018-11-13T05:03:11.879Z,28.27
2018-11-13T05:05:45.550Z,27.53
2018-11-13T05:09:20.604Z,25.20
2018-11-13T05:11:49.194Z,26.33
2018-11-13T05:14:18.033Z,29.23
2018-11-13T05:19:25.873Z,27.20
2018-11-13T05:21:55.082Z,23.37
2018-11-13T05:24:23.644Z,28.30
2018-11-13T05:26:53.134Z,26.40
2018-11-13T05:29:22.907Z,24.63
2018-11-13T05:31:52.675Z,21.63
2018-11-13T05:34:21.161Z,23.93
2018-11-13T05:39:31.685Z,23.73
2018-11-13T05:42:01.717Z,21.00
2018-11-13T05:44:31.734Z,20.70
2018-11-13T05:47:04.143Z,27.47
2018-11-13T05:49:37.436Z,19.83
2018-11-13T05:52:07.154Z,24.90
2018-11-13T05:54:36.642Z,24.17
2018-11-13T05:57:05.286Z,24.13
2018-11-13T05:59:34.514Z,29.37
2018-11-13T06:02:10.917Z,24.03
2018-11-13T06:04:43.698Z,20.40
2018-11-13T06:07:12.239Z,22.37
2018-11-13T06:09:40.833Z,20.37
2018-11-13T06:12:17.063Z,22.97
2018-11-13T06:14:46.282Z,22.03
2018-11-13T06:17:14.847Z,23.60
2018-11-13T06:19:43.387Z,25.20
2018-11-13T06:22:12.679Z,19.97
2018-11-13T06:27:15.800Z,21.67
2018-11-13T06:29:49.182Z,26.37
2018-11-13T06:32:17.790Z,20.80
2018-11-13T06:34:51.961Z,23.70
2018-11-13T06:37:20.494Z,22.43
2018-11-13T06:42:36.551Z,22.33
2018-11-13T06:45:07.898Z,21.97
2018-11-13T06:47:37.141Z,25.43
2018-11-13T06:50:06.163Z,21.10
2018-11-13T06:52:34.663Z,25.37
2018-11-13T06:55:06.201Z,24.37
2018-11-13T06:57:36.930Z,20.93
2018-11-13T07:02:54.641Z,20.73
2018-11-13T07:05:23.133Z,21.13
2018-11-13T07:07:51.659Z,23.83
2018-11-13T07:10:21.439Z,20.10
2018-11-13T07:12:51.280Z,19.50
2018-11-13T07:15:21.086Z,20.07
2018-11-13T07:17:50.845Z,18.27
2018-11-13T07:20:20.564Z,18.90
2018-11-13T07:22:49.480Z,18.87
2018-11-13T07:25:18.091Z,21.67
2018-11-13T07:27:49.843Z,15.47
2018-11-13T07:30:19.707Z,19.17
2018-11-13T07:32:50.570Z,18.00
2018-11-13T07:35:20.073Z,16.03
2018-11-13T07:40:27.267Z,8.47
2018-11-13T07:42:55.944Z,9.83
2018-11-13T07:45:27.268Z,9.60
2018-11-13T07:47:59.588Z,10.37
2018-11-13T07:50:32.324Z,10.13
2018-11-13T07:53:06.654Z,10.47
2018-11-13T07:55:35.469Z,7.00
2018-11-13T07:58:03.946Z,7.00
2018-11-13T08:00:33.666Z,11.77
2018-11-13T08:03:08.770Z,12.07
2018-11-13T08:05:39.606Z,6.90
2018-11-13T08:08:15.851Z,4.57
2018-11-13T08:10:45.461Z,4.00
2018-11-13T08:13:16.169Z,4.13
2018-11-13T08:15:47.246Z,4.97
2018-11-13T08:18:20.253Z,4.30
2018-11-13T08:20:50.631Z,4.67
2018-11-13T08:23:24.098Z,3.73
2018-11-13T08:25:56.687Z,3.30
2018-11-13T08:28:33.765Z,5.37
2018-11-13T08:32:31.511Z,7.33
2018-11-13T08:35:00.149Z,4.73
2018-11-13T08:40:15.526Z,4.37
2018-11-13T08:42:44.756Z,4.97
2018-11-13T08:45:14.114Z,8.70
2018-11-13T08:47:43.171Z,4.23
2018-11-13T08:50:12.561Z,4.60
2018-11-13T08:52:43.048Z,4.87
2018-11-13T08:57:48.452Z,4.07
2018-11-13T09:00:18.625Z,8.23
2018-11-13T09:02:47.740Z,5.00
2018-11-13T09:05:22.634Z,3.63
2018-11-13T09:07:55.449Z,3.07
2018-11-13T09:10:33.545Z,2.30
2018-11-13T09:13:02.109Z,5.50
2018-11-13T09:15:30.986Z,7.27
2018-11-13T09:18:02.034Z,5.37
2018-11-13T09:20:36.350Z,4.37
2018-11-13T09:23:08.396Z,4.63
2018-11-13T09:25:38.164Z,3.73
2018-11-13T09:28:09.494Z,4.20
2018-11-13T09:30:39.460Z,3.90
2018-11-13T09:33:07.919Z,3.67
2018-11-13T09:35:45.443Z,5.47
2018-11-13T09:38:15.933Z,2.90
2018-11-13T09:40:46.205Z,5.37
2018-11-13T09:43:15.397Z,5.57
2018-11-13T09:45:44.936Z,5.63
2018-11-13T09:48:14.249Z,4.97
2018-11-13T09:50:49.841Z,3.07
2018-11-13T09:53:19.716Z,4.87
2018-11-13T09:55:49.548Z,3.83
2018-11-13T09:58:31.741Z,3.80
2018-11-13T10:01:00.608Z,3.50
2018-11-13T10:03:29.257Z,3.30
2018-11-13T10:05:57.499Z,6.83
2018-11-13T10:08:28.117Z,4.37
2018-11-13T10:11:00.297Z,4.67
2018-11-13T10:13:29.090Z,5.57
2018-11-13T10:15:57.627Z,4.30
2018-11-13T10:18:27.352Z,4.37
2018-11-13T10:20:55.779Z,2.93
2018-11-13T10:23:24.266Z,3.53
2018-11-13T10:25:57.960Z,9.43
2018-11-13T10:28:36.609Z,5.30
2018-11-13T10:31:07.623Z,7.10
2018-11-13T10:33:45.337Z,5.73
2018-11-13T10:36:27.371Z,11.90
2018-11-13T10:38:57.666Z,6.97
2018-11-13T10:41:32.405Z,6.97
2018-11-13T10:44:00.850Z,8.67
2018-11-13T10:46:31.515Z,11.63
2018-11-13T10:49:19.341Z,6.20
2018-11-13T10:51:48.314Z,7.67
2018-11-13T10:54:18.921Z,10.00
2018-11-13T10:56:58.346Z,8.13
2018-11-13T10:59:26.950Z,3.13
2018-11-13T11:02:01.146Z,5.10
2018-11-13T11:04:35.618Z,5.50
2018-11-13T11:07:19.256Z,5.83
2018-11-13T11:09:50.737Z,9.77
2018-11-13T11:12:19.649Z,9.47
2018-11-13T11:14:49.789Z,11.87
2018-11-13T11:17:25.192Z,8.93
2018-11-13T11:20:05.404Z,9.03
2018-11-13T11:22:38.640Z,12.97
2018-11-13T11:25:08.105Z,8.03
2018-11-13T11:27:37.478Z,13.07
2018-11-13T11:30:09.818Z,8.97
2018-11-13T11:32:47.775Z,10.40
2018-11-13T11:35:16.300Z,12.53
2018-11-13T11:37:45.793Z,12.80
2018-11-13T11:42:58.375Z,11.33
2018-11-13T11:45:26.928Z,11.00
2018-11-13T11:47:55.488Z,15.90
2018-11-13T11:50:24.431Z,12.60
2018-11-13T11:53:00.935Z,12.57
2018-11-13T11:55:30.160Z,14.33
2018-11-13T11:58:08.771Z,11.33
2018-11-13T12:00:37.802Z,10.77
2018-11-13T12:03:08.431Z,12.83
2018-11-13T12:05:40.358Z,14.78
2018-11-13T12:08:08.848Z,20.57
2018-11-13T12:10:37.380Z,12.33
2018-11-13T12:13:05.972Z,13.83
2018-11-13T12:15:34.476Z,12.27
2018-11-13T12:18:02.988Z,16.83
2018-11-13T12:20:31.507Z,12.83
2018-11-13T12:23:08.347Z,10.97
2018-11-13T12:25:37.809Z,12.20
2018-11-13T12:28:06.289Z,10.27
2018-11-13T12:30:35.167Z,12.43
2018-11-13T12:33:03.728Z,15.43
2018-11-13T12:35:32.817Z,10.63
2018-11-13T12:38:01.983Z,15.00
2018-11-13T12:40:30.582Z,13.57
2018-11-13T12:43:00.001Z,11.17
2018-11-13T12:45:28.542Z,15.85
2018-11-13T12:47:59.694Z,14.40
2018-11-13T12:50:39.427Z,13.37
2018-11-13T12:53:23.706Z,22.27
2018-11-13T12:55:55.814Z,12.60
2018-11-13T12:58:24.253Z,15.97
2018-11-13T13:00:53.237Z,20.43
2018-11-13T13:05:57.834Z,13.77
2018-11-13T13:08:26.372Z,16.83
2018-11-13T13:10:59.372Z,11.83
2018-11-13T13:13:27.874Z,16.67
2018-11-13T13:15:57.087Z,12.53
2018-11-13T13:18:25.602Z,19.17
2018-11-13T13:20:54.664Z,19.60
2018-11-13T13:23:24.126Z,13.83
2018-11-13T13:25:54.924Z,14.40
2018-11-13T13:28:24.246Z,14.20
2018-11-13T13:30:52.766Z,8.90
2018-11-13T13:33:24.429Z,15.60
2018-11-13T13:35:55.541Z,15.97
2018-11-13T13:38:24.169Z,11.83
2018-11-13T13:40:54.582Z,14.37
2018-11-13T13:43:24.998Z,18.27
2018-11-13T13:45:53.992Z,16.73
2018-11-13T13:48:22.900Z,12.23
2018-11-13T13:50:51.467Z,19.27
2018-11-13T13:53:24.330Z,13.40
2018-11-13T13:55:55.695Z,26.17
2018-11-13T13:58:32.398Z,13.40
2018-11-13T14:01:13.186Z,18.23
2018-11-13T14:03:42.542Z,17.43
2018-11-13T14:06:11.194Z,12.47
2018-11-13T14:08:40.075Z,18.30
2018-11-13T14:11:09.250Z,18.17
2018-11-13T14:13:39.780Z,16.20
2018-11-13T14:16:08.488Z,16.73
2018-11-13T14:18:37.018Z,15.72
2018-11-13T14:21:13.572Z,21.30
2018-11-13T14:23:42.097Z,19.77
2018-11-13T14:26:10.638Z,19.90
2018-11-13T14:28:45.330Z,17.67
2018-11-13T14:31:37.537Z,12.40
2018-11-13T14:34:06.057Z,12.87
2018-11-13T14:36:34.578Z,14.30
2018-11-13T14:39:03.714Z,23.33
2018-11-13T14:41:33.061Z,18.90
2018-11-13T14:44:06.098Z,20.27
2018-11-13T14:46:37.088Z,17.87
2018-11-13T14:49:06.386Z,18.97
2018-11-13T14:51:34.932Z,24.07
2018-11-13T14:54:16.083Z,16.43
2018-11-13T14:56:44.891Z,20.50
2018-11-13T14:59:14.009Z,14.13
2018-11-13T15:01:43.989Z,18.63
2018-11-13T15:04:12.555Z,26.30
2018-11-13T15:06:41.982Z,17.53
2018-11-13T15:09:20.837Z,17.57
2018-11-13T15:14:32.859Z,14.27
2018-11-13T15:17:01.374Z,22.93
2018-11-13T15:22:19.381Z,21.50
2018-11-13T15:24:48.577Z,17.73
2018-11-13T15:27:17.554Z,17.40
2018-11-13T15:29:46.997Z,19.07
2018-11-13T15:32:15.509Z,18.23
2018-11-13T15:34:44.037Z,15.23
2018-11-13T15:37:15.702Z,17.97
2018-11-13T15:39:47.434Z,18.67
2018-11-13T15:42:15.984Z,21.87
2018-11-13T15:44:45.174Z,19.30
2018-11-13T15:47:19.582Z,13.50
2018-11-13T15:49:48.588Z,17.57
2018-11-13T15:52:17.239Z,15.93
2018-11-13T15:54:45.683Z,13.43
2018-11-13T15:57:14.910Z,13.13
2018-11-13T15:59:43.422Z,20.00
2018-11-13T16:02:12.228Z,16.37
2018-11-13T16:04:41.355Z,14.27
2018-11-13T16:07:09.936Z,14.87
2018-11-13T16:09:38.521Z,14.53
2018-11-13T16:12:07.048Z,20.52
2018-11-13T16:14:35.610Z,15.07
2018-11-13T16:17:04.124Z,14.80
2018-11-13T16:19:32.647Z,17.00
2018-11-13T16:22:01.915Z,15.40
2018-11-13T16:24:31.177Z,16.03
2018-11-13T16:26:59.736Z,16.13
2018-11-13T16:29:28.686Z,23.00
2018-11-13T16:32:02.419Z,14.63
2018-11-13T16:34:31.726Z,14.77
2018-11-13T16:37:04.733Z,18.50
2018-11-13T16:39:33.223Z,15.23
2018-11-13T16:42:03.708Z,15.30
2018-11-13T16:44:34.316Z,18.67
2018-11-13T16:47:03.679Z,14.53
2018-11-13T16:49:37.019Z,19.13
2018-11-13T16:52:14.585Z,18.53
2018-11-13T16:54:51.596Z,18.20
2018-11-13T16:57:25.766Z,20.67
2018-11-13T17:02:54.672Z,18.80
2018-11-13T17:05:26.569Z,21.87
2018-11-13T17:07:55.601Z,22.77
2018-11-13T17:10:25.465Z,26.40
2018-11-13T17:12:54.234Z,20.73
2018-11-13T17:15:24.745Z,24.60
2018-11-13T17:17:55.238Z,21.93
2018-11-13T17:20:26.436Z,17.43
2018-11-13T17:22:58.391Z,27.13
2018-11-13T17:25:35.348Z,21.63
2018-11-13T17:28:05.990Z,15.83
2018-11-13T17:30:35.182Z,21.73
2018-11-13T17:33:05.483Z,23.73
2018-11-13T17:38:19.292Z,17.77
2018-11-13T17:40:55.466Z,17.63
2018-11-13T17:43:26.762Z,20.90
2018-11-13T17:46:04.109Z,25.07
2018-11-13T17:48:37.369Z,19.67
2018-11-13T17:51:07.064Z,24.23
2018-11-13T17:53:48.663Z,21.77
2018-11-13T17:56:23.227Z,26.50
2018-11-13T17:58:51.763Z,16.87
2018-11-13T18:01:20.427Z,14.63
2018-11-13T18:03:53.369Z,21.43
2018-11-13T18:06:23.739Z,12.67
2018-11-13T18:08:52.262Z,16.60
2018-11-13T18:11:20.975Z,16.43
2018-11-13T18:13:49.568Z,17.47
2018-11-13T18:16:18.226Z,18.73
2018-11-13T18:18:46.690Z,19.60
2018-11-13T18:21:15.958Z,19.50
2018-11-13T18:23:44.604Z,21.23
2018-11-13T18:26:13.207Z,23.67
2018-11-13T18:28:47.753Z,18.00
2018-11-13T18:37:00.258Z,22.97
2018-11-13T18:39:33.439Z,17.87
2018-11-13T18:42:04.547Z,21.37
2018-11-13T18:44:33.374Z,17.33
2018-11-13T18:47:09.202Z,12.77
2018-11-13T18:49:38.983Z,13.27
2018-11-13T18:52:08.104Z,16.57
2018-11-13T18:54:40.993Z,18.30
2018-11-13T18:57:10.008Z,13.67
2018-11-13T18:59:39.344Z,15.43
2018-11-13T19:02:07.889Z,19.57
2018-11-13T19:04:38.827Z,18.63
2018-11-13T19:07:07.889Z,10.50
2018-11-13T19:09:39.340Z,12.83
2018-11-13T19:12:12.895Z,18.10
2018-11-13T19:14:42.284Z,11.20
2018-11-13T19:17:10.836Z,15.63
2018-11-13T19:19:39.350Z,23.80
2018-11-13T19:22:08.062Z,14.03
2018-11-13T19:24:36.554Z,20.37
2018-11-13T19:27:05.082Z,21.77
2018-11-13T19:29:34.093Z,17.33
2018-11-13T19:32:02.729Z,13.30
2018-11-13T19:34:31.494Z,20.33
2018-11-13T19:37:00.233Z,14.53
2018-11-13T19:39:28.558Z,19.57
2018-11-13T19:41:57.047Z,10.60
2018-11-13T19:44:25.604Z,17.83
2018-11-13T19:46:54.090Z,15.50
2018-11-13T19:49:22.910Z,13.60
2018-11-13T19:51:51.135Z,17.13
2018-11-13T19:54:19.613Z,18.77
2018-11-13T19:56:48.126Z,14.13
2018-11-13T19:59:16.598Z,15.30
2018-11-13T20:01:45.107Z,24.23
2018-11-13T20:04:13.809Z,11.70
2018-11-13T20:06:42.275Z,17.90
2018-11-13T20:09:11.738Z,15.60
2018-11-13T20:11:40.265Z,20.60
2018-11-13T20:14:08.872Z,17.00
2018-11-13T20:16:37.379Z,16.77
2018-11-13T20:19:05.880Z,16.07
2018-11-13T20:21:34.543Z,12.30
2018-11-13T20:24:03.070Z,16.83
2018-11-13T20:26:31.588Z,20.00
2018-11-13T20:29:00.546Z,16.13
2018-11-13T20:31:29.265Z,13.33
2018-11-13T20:34:00.442Z,16.27
2018-11-13T20:36:28.980Z,14.87
2018-11-13T20:38:57.561Z,19.73
2018-11-13T20:41:26.137Z,12.10
2018-11-13T20:43:54.638Z,13.50
2018-11-13T20:46:33.626Z,17.63
2018-11-13T20:51:54.026Z,20.50
2018-11-13T20:54:27.905Z,14.50
2018-11-13T20:56:58.068Z,18.77
2018-11-13T20:59:31.390Z,12.53
2018-11-13T21:02:04.543Z,19.30
2018-11-13T21:07:20.182Z,20.30
2018-11-13T21:09:53.864Z,16.43
2018-11-13T21:12:26.506Z,20.00
2018-11-13T21:14:55.056Z,20.00
2018-11-13T21:17:24.479Z,17.27
2018-11-13T21:19:53.266Z,21.20
2018-11-13T21:22:21.797Z,17.03
2018-11-13T21:24:50.326Z,16.40
2018-11-13T21:27:19.120Z,22.80
2018-11-13T21:29:47.467Z,16.77
2018-11-13T21:32:18.056Z,20.00
2018-11-13T21:34:58.790Z,14.87
2018-11-13T21:37:37.002Z,16.97
2018-11-13T21:40:12.436Z,19.43
2018-11-13T21:42:41.009Z,20.00
2018-11-13T21:45:10.630Z,15.10
2018-11-13T21:47:41.099Z,13.73
2018-11-13T21:50:10.432Z,13.80
2018-11-13T21:52:39.541Z,19.23
2018-11-13T21:55:13.688Z,11.53
2018-11-13T21:57:42.268Z,16.37
2018-11-13T22:00:13.932Z,23.77
2018-11-13T22:02:44.568Z,22.37
2018-11-13T22:05:13.255Z,19.20
2018-11-13T22:10:20.942Z,17.07
2018-11-13T22:12:49.481Z,17.40
2018-11-13T22:15:21.504Z,15.90
2018-11-13T22:20:28.020Z,17.93
2018-11-13T22:23:00.223Z,23.60
2018-11-13T22:25:28.834Z,18.97
2018-11-13T22:28:05.558Z,17.60
2018-11-13T22:30:34.677Z,20.77
2018-11-13T22:33:03.213Z,21.27
2018-11-13T22:35:32.308Z,22.23
2018-11-13T22:38:00.813Z,18.30
2018-11-13T22:40:32.325Z,19.80
2018-11-13T22:43:06.442Z,16.57
2018-11-13T22:45:35.154Z,19.70
2018-11-13T22:48:11.358Z,20.87
2018-11-13T22:53:14.564Z,27.27
2018-11-13T22:55:45.365Z,23.30
2018-11-13T22:58:26.474Z,27.43
2018-11-13T23:01:04.674Z,23.30
2018-11-13T23:03:43.812Z,27.90
2018-11-13T23:06:13.784Z,27.13
2018-11-13T23:08:46.309Z,27.37
2018-11-13T23:11:24.516Z,27.93
2018-11-13T23:13:53.066Z,18.23
2018-11-13T23:16:24.041Z,27.37
2018-11-13T23:19:04.703Z,21.47
2018-11-13T23:21:35.556Z,18.13
2018-11-13T23:24:10.148Z,19.73
2018-11-13T23:26:40.600Z,29.67
2018-11-13T23:29:08.726Z,25.20
2018-11-13T23:31:42.870Z,23.77
2018-11-13T23:34:11.438Z,27.47
2018-11-13T23:36:40.493Z,26.67
2018-11-13T23:41:47.635Z,26.13
2018-11-13T23:44:21.365Z,26.67
2018-11-13T23:46:55.363Z,11.97
2018-11-13T23:49:24.934Z,17.60
2018-11-13T23:51:55.855Z,28.90
2018-11-13T23:54:28.696Z,20.73
2018-11-13T23:56:59.727Z,25.87
2018-11-13T23:59:29.481Z,25.00
